RYR83SA EDJA-EPKK
Flight info
| Callsign | RYR83SA |
|---|---|
| Flight time | 1h 23m |
| Altitude | 37000 |
| Route | KPT4B KPT Z999 BEMKI L607 XEBIX N871 BEPAS DCT NELPA DCT PADKA |
| Aircraft | B738/M-SDE2E3FGHIRWXY/LB1 |
Departure
| Time | 2026-04-30 10:32 |
|---|---|
| Airport | Memmingen Allgau Airport (EDJA) |
Arrival
| Time | 2026-04-30 11:55 |
|---|---|
| Airport | Kraków John Paul II International Airport (EPKK) |
| Time | Latitude | Longitude | Altitude | Speed | Heading |
|---|---|---|---|---|---|
| 2026-04-30 10:08 | 47.98866 | 10.23235 | 2078 ft | 0 kts | 49° |
| 2026-04-30 10:28 | 47.98868 | 10.23241 | 2078 ft | 3 kts | 59° |
| 2026-04-30 10:28 | 47.98852 | 10.23278 | 2077 ft | 6 kts | 165° |
| 2026-04-30 10:28 | 47.98814 | 10.23223 | 2078 ft | 9 kts | 249° |
| 2026-04-30 10:28 | 47.98792 | 10.23131 | 2078 ft | 9 kts | 251° |
| 2026-04-30 10:29 | 47.98772 | 10.23043 | 2075 ft | 9 kts | 251° |
| 2026-04-30 10:29 | 47.98748 | 10.22958 | 2077 ft | 9 kts | 236° |
| 2026-04-30 10:29 | 47.98712 | 10.22889 | 2078 ft | 9 kts | 253° |
| 2026-04-30 10:29 | 47.98701 | 10.22801 | 2075 ft | 8 kts | 260° |
| 2026-04-30 10:30 | 47.98682 | 10.22722 | 2075 ft | 8 kts | 217° |
| 2026-04-30 10:30 | 47.98625 | 10.22714 | 2076 ft | 8 kts | 180° |
| 2026-04-30 10:30 | 47.98567 | 10.22714 | 2078 ft | 9 kts | 179° |
| 2026-04-30 10:30 | 47.98503 | 10.22688 | 2079 ft | 10 kts | 216° |
| 2026-04-30 10:31 | 47.98457 | 10.22596 | 2079 ft | 12 kts | 237° |
| 2026-04-30 10:31 | 47.98405 | 10.22538 | 2080 ft | 8 kts | 168° |
| 2026-04-30 10:31 | 47.98356 | 10.22582 | 2083 ft | 8 kts | 128° |
| 2026-04-30 10:31 | 47.98360 | 10.22632 | 2082 ft | 0 kts | 61° |
| 2026-04-30 10:32 | 47.98417 | 10.22785 | 2080 ft | 52 kts | 59° |
| 2026-04-30 10:32 | 47.98739 | 10.23592 | 2079 ft | 126 kts | 59° |
| 2026-04-30 10:32 | 47.99309 | 10.25011 | 2171 ft | 181 kts | 59° |
| 2026-04-30 10:32 | 47.99911 | 10.26628 | 3358 ft | 172 kts | 63° |
| 2026-04-30 10:33 | 48.00500 | 10.28093 | 4700 ft | 159 kts | 62° |
| 2026-04-30 10:33 | 48.01101 | 10.29575 | 5318 ft | 177 kts | 63° |
| 2026-04-30 10:33 | 48.01771 | 10.31251 | 5805 ft | 194 kts | 61° |
| 2026-04-30 10:33 | 48.02498 | 10.33083 | 6076 ft | 217 kts | 63° |
| 2026-04-30 10:34 | 48.03282 | 10.35089 | 6594 ft | 230 kts | 64° |
| 2026-04-30 10:34 | 48.03702 | 10.37369 | 7180 ft | 232 kts | 94° |
| 2026-04-30 10:34 | 48.03213 | 10.39692 | 7137 ft | 239 kts | 123° |
| 2026-04-30 10:34 | 48.01978 | 10.41284 | 7245 ft | 235 kts | 154° |
| 2026-04-30 10:35 | 48.00439 | 10.41942 | 7434 ft | 227 kts | 162° |
| 2026-04-30 10:35 | 47.98868 | 10.42507 | 7863 ft | 237 kts | 162° |
| 2026-04-30 10:35 | 47.97187 | 10.42729 | 8260 ft | 249 kts | 185° |
| 2026-04-30 10:35 | 47.95509 | 10.42132 | 8941 ft | 250 kts | 192° |
| 2026-04-30 10:36 | 47.93753 | 10.41385 | 9119 ft | 270 kts | 192° |
| 2026-04-30 10:36 | 47.91917 | 10.40664 | 9453 ft | 284 kts | 191° |
| 2026-04-30 10:36 | 47.89975 | 10.39964 | 10068 ft | 285 kts | 190° |
| 2026-04-30 10:36 | 47.88021 | 10.39294 | 10849 ft | 286 kts | 189° |
| 2026-04-30 10:37 | 47.86700 | 10.38877 | 11135 ft | 297 kts | 189° |
| 2026-04-30 10:37 | 47.84371 | 10.38174 | 11440 ft | 320 kts | 189° |
| 2026-04-30 10:37 | 47.82162 | 10.37486 | 11993 ft | 331 kts | 190° |
| 2026-04-30 10:37 | 47.79853 | 10.36739 | 12506 ft | 343 kts | 191° |
| 2026-04-30 10:38 | 47.78294 | 10.36224 | 12879 ft | 348 kts | 191° |
| 2026-04-30 10:38 | 47.75756 | 10.35382 | 13521 ft | 357 kts | 191° |
| 2026-04-30 10:38 | 47.74199 | 10.34869 | 13975 ft | 360 kts | 190° |
| 2026-04-30 10:38 | 47.71705 | 10.34205 | 14642 ft | 363 kts | 188° |
| 2026-04-30 10:39 | 47.69195 | 10.33637 | 15383 ft | 363 kts | 188° |
| 2026-04-30 10:39 | 47.66706 | 10.33086 | 16077 ft | 367 kts | 188° |
| 2026-04-30 10:39 | 47.64449 | 10.32571 | 16559 ft | 373 kts | 189° |
| 2026-04-30 10:39 | 47.61921 | 10.31978 | 17114 ft | 379 kts | 189° |
| 2026-04-30 10:40 | 47.59297 | 10.31361 | 17838 ft | 380 kts | 188° |
| 2026-04-30 10:40 | 47.56650 | 10.31351 | 18462 ft | 387 kts | 171° |
| 2026-04-30 10:40 | 47.54065 | 10.32587 | 18909 ft | 394 kts | 152° |
| 2026-04-30 10:40 | 47.51793 | 10.34856 | 19348 ft | 399 kts | 142° |
| 2026-04-30 10:41 | 47.49589 | 10.37409 | 19937 ft | 401 kts | 142° |
| 2026-04-30 10:41 | 47.47411 | 10.39882 | 20503 ft | 404 kts | 142° |
| 2026-04-30 10:41 | 47.45128 | 10.42412 | 21051 ft | 407 kts | 142° |
| 2026-04-30 10:41 | 47.43109 | 10.45476 | 21535 ft | 410 kts | 122° |
| 2026-04-30 10:42 | 47.41953 | 10.49292 | 22085 ft | 409 kts | 102° |
| 2026-04-30 10:42 | 47.41663 | 10.53487 | 22629 ft | 409 kts | 84° |
| 2026-04-30 10:42 | 47.42227 | 10.57575 | 23106 ft | 408 kts | 69° |
| 2026-04-30 10:42 | 47.43211 | 10.61513 | 23586 ft | 412 kts | 66° |
| 2026-04-30 10:43 | 47.44251 | 10.65479 | 24017 ft | 415 kts | 66° |
| 2026-04-30 10:43 | 47.45275 | 10.69476 | 24451 ft | 418 kts | 67° |
| 2026-04-30 10:43 | 47.46275 | 10.73513 | 24867 ft | 421 kts | 68° |
| 2026-04-30 10:43 | 47.47275 | 10.77615 | 25267 ft | 424 kts | 68° |
| 2026-04-30 10:44 | 47.48267 | 10.81714 | 25678 ft | 427 kts | 68° |
| 2026-04-30 10:44 | 47.49277 | 10.85897 | 26164 ft | 428 kts | 68° |
| 2026-04-30 10:44 | 47.50268 | 10.90007 | 26538 ft | 431 kts | 68° |
| 2026-04-30 10:44 | 47.51282 | 10.94211 | 26860 ft | 435 kts | 68° |
| 2026-04-30 10:45 | 47.52308 | 10.98472 | 27233 ft | 438 kts | 67° |
| 2026-04-30 10:45 | 47.53328 | 11.02711 | 27631 ft | 440 kts | 67° |
| 2026-04-30 10:45 | 47.54366 | 11.07034 | 27942 ft | 444 kts | 67° |
| 2026-04-30 10:45 | 47.55397 | 11.11332 | 28291 ft | 447 kts | 67° |
| 2026-04-30 10:46 | 47.56434 | 11.15663 | 28671 ft | 448 kts | 67° |
| 2026-04-30 10:46 | 47.57487 | 11.20061 | 29053 ft | 450 kts | 67° |
| 2026-04-30 10:46 | 47.58531 | 11.24432 | 29328 ft | 454 kts | 67° |
| 2026-04-30 10:46 | 47.59592 | 11.28886 | 29622 ft | 458 kts | 67° |
| 2026-04-30 10:47 | 47.60645 | 11.33313 | 29903 ft | 460 kts | 67° |
| 2026-04-30 10:47 | 47.61716 | 11.37824 | 30208 ft | 462 kts | 67° |
| 2026-04-30 10:47 | 47.62761 | 11.42321 | 30474 ft | 466 kts | 69° |
| 2026-04-30 10:47 | 47.63720 | 11.46976 | 30675 ft | 470 kts | 70° |
| 2026-04-30 10:48 | 47.64641 | 11.51650 | 30995 ft | 470 kts | 70° |
| 2026-04-30 10:48 | 47.65565 | 11.56279 | 31410 ft | 468 kts | 70° |
| 2026-04-30 10:48 | 47.66498 | 11.60882 | 31711 ft | 468 kts | 69° |
| 2026-04-30 10:48 | 47.67449 | 11.65535 | 31954 ft | 470 kts | 70° |
| 2026-04-30 10:49 | 47.68395 | 11.70164 | 32264 ft | 470 kts | 69° |
| 2026-04-30 10:49 | 47.69334 | 11.74781 | 32634 ft | 468 kts | 70° |
| 2026-04-30 10:49 | 47.70279 | 11.79453 | 32937 ft | 469 kts | 70° |
| 2026-04-30 10:49 | 47.71177 | 11.84103 | 33193 ft | 471 kts | 71° |
| 2026-04-30 10:50 | 47.72085 | 11.88748 | 33511 ft | 468 kts | 66° |
| 2026-04-30 10:50 | 47.73447 | 11.93090 | 33811 ft | 461 kts | 54° |
| 2026-04-30 10:50 | 47.75220 | 11.96815 | 34090 ft | 455 kts | 45° |
| 2026-04-30 10:50 | 47.77463 | 12.00139 | 34327 ft | 449 kts | 34° |
| 2026-04-30 10:51 | 47.79870 | 12.03044 | 34593 ft | 448 kts | 34° |
| 2026-04-30 10:51 | 47.82339 | 12.05972 | 34860 ft | 447 kts | 34° |
| 2026-04-30 10:51 | 47.84747 | 12.08853 | 35072 ft | 448 kts | 34° |
| 2026-04-30 10:51 | 47.87179 | 12.11807 | 35276 ft | 449 kts | 35° |
| 2026-04-30 10:52 | 47.89580 | 12.14758 | 35529 ft | 448 kts | 35° |
| 2026-04-30 10:52 | 47.91982 | 12.17726 | 35809 ft | 447 kts | 35° |
| 2026-04-30 10:52 | 47.94401 | 12.20718 | 36013 ft | 447 kts | 35° |
| 2026-04-30 10:52 | 47.96792 | 12.23671 | 36203 ft | 448 kts | 35° |
| 2026-04-30 10:53 | 47.99209 | 12.26658 | 36443 ft | 447 kts | 35° |
| 2026-04-30 10:53 | 48.01609 | 12.29627 | 36712 ft | 446 kts | 35° |
| 2026-04-30 10:53 | 48.03977 | 12.32560 | 36902 ft | 447 kts | 35° |
| 2026-04-30 10:53 | 48.06384 | 12.35544 | 37073 ft | 447 kts | 35° |
| 2026-04-30 10:54 | 48.08761 | 12.38495 | 37300 ft | 446 kts | 35° |
| 2026-04-30 10:54 | 48.11179 | 12.41504 | 37388 ft | 448 kts | 36° |
| 2026-04-30 10:54 | 48.15965 | 12.47486 | 37382 ft | 448 kts | 36° |
| 2026-04-30 10:55 | 48.20734 | 12.53464 | 37399 ft | 445 kts | 36° |
| 2026-04-30 10:55 | 48.25534 | 12.59293 | 37406 ft | 441 kts | 32° |
| 2026-04-30 10:56 | 48.30495 | 12.64742 | 37420 ft | 438 kts | 32° |
| 2026-04-30 10:56 | 48.35402 | 12.70152 | 37422 ft | 438 kts | 32° |
| 2026-04-30 10:57 | 48.40318 | 12.75720 | 37434 ft | 441 kts | 36° |
| 2026-04-30 10:57 | 48.44864 | 12.81991 | 37437 ft | 445 kts | 40° |
| 2026-04-30 10:58 | 48.49372 | 12.88473 | 37439 ft | 446 kts | 39° |
| 2026-04-30 10:58 | 48.53930 | 12.94880 | 37436 ft | 448 kts | 39° |
| 2026-04-30 10:59 | 48.58387 | 13.01571 | 37438 ft | 452 kts | 42° |
| 2026-04-30 10:59 | 48.62044 | 13.07349 | 37431 ft | 454 kts | 42° |
| 2026-04-30 11:00 | 48.66445 | 13.14279 | 37433 ft | 455 kts | 42° |
| 2026-04-30 11:00 | 48.70894 | 13.21232 | 37433 ft | 456 kts | 42° |
| 2026-04-30 11:01 | 48.75315 | 13.28141 | 37434 ft | 455 kts | 42° |
| 2026-04-30 11:01 | 48.79731 | 13.35061 | 37427 ft | 455 kts | 42° |
| 2026-04-30 11:02 | 48.84127 | 13.41972 | 37441 ft | 453 kts | 42° |
| 2026-04-30 11:02 | 48.88469 | 13.48949 | 37421 ft | 455 kts | 47° |
| 2026-04-30 11:03 | 48.91705 | 13.57253 | 37447 ft | 461 kts | 63° |
| 2026-04-30 11:04 | 48.95271 | 13.70728 | 37437 ft | 460 kts | 65° |
| 2026-04-30 11:04 | 48.97649 | 13.79740 | 37430 ft | 446 kts | 64° |
| 2026-04-30 11:05 | 48.99947 | 13.88338 | 37492 ft | 437 kts | 64° |
| 2026-04-30 11:05 | 49.02283 | 13.97015 | 37489 ft | 445 kts | 64° |
| 2026-04-30 11:06 | 49.04654 | 14.05856 | 37472 ft | 454 kts | 64° |
| 2026-04-30 11:06 | 49.07054 | 14.14862 | 37468 ft | 461 kts | 64° |
| 2026-04-30 11:07 | 49.09473 | 14.23987 | 37464 ft | 465 kts | 64° |
| 2026-04-30 11:07 | 49.11888 | 14.33134 | 37467 ft | 466 kts | 64° |
| 2026-04-30 11:08 | 49.14323 | 14.42389 | 37458 ft | 466 kts | 64° |
| 2026-04-30 11:08 | 49.16714 | 14.51516 | 37465 ft | 464 kts | 64° |
| 2026-04-30 11:09 | 49.19102 | 14.60661 | 37451 ft | 462 kts | 64° |
| 2026-04-30 11:09 | 49.21474 | 14.69786 | 37459 ft | 458 kts | 64° |
| 2026-04-30 11:10 | 49.23829 | 14.78875 | 37461 ft | 455 kts | 64° |
| 2026-04-30 11:10 | 49.26148 | 14.87859 | 37463 ft | 452 kts | 64° |
| 2026-04-30 11:11 | 49.28429 | 14.96805 | 37460 ft | 451 kts | 66° |
| 2026-04-30 11:11 | 49.30437 | 15.05934 | 37465 ft | 450 kts | 68° |
| 2026-04-30 11:12 | 49.32334 | 15.15155 | 37468 ft | 450 kts | 68° |
| 2026-04-30 11:12 | 49.34218 | 15.24274 | 37468 ft | 450 kts | 68° |
| 2026-04-30 11:13 | 49.36134 | 15.33460 | 37466 ft | 451 kts | 68° |
| 2026-04-30 11:13 | 49.38060 | 15.42684 | 37466 ft | 452 kts | 68° |
| 2026-04-30 11:14 | 49.39974 | 15.51888 | 37455 ft | 454 kts | 68° |
| 2026-04-30 11:14 | 49.41891 | 15.61150 | 37460 ft | 455 kts | 68° |
| 2026-04-30 11:15 | 49.43821 | 15.70522 | 37450 ft | 456 kts | 68° |
| 2026-04-30 11:15 | 49.45726 | 15.79817 | 37456 ft | 456 kts | 68° |
| 2026-04-30 11:16 | 49.47603 | 15.89037 | 37442 ft | 444 kts | 68° |
| 2026-04-30 11:16 | 49.49436 | 15.98073 | 37449 ft | 441 kts | 68° |
| 2026-04-30 11:17 | 49.51270 | 16.07141 | 37449 ft | 436 kts | 68° |
| 2026-04-30 11:17 | 49.52741 | 16.14461 | 37442 ft | 425 kts | 68° |
| 2026-04-30 11:18 | 49.54492 | 16.23190 | 37455 ft | 423 kts | 68° |
| 2026-04-30 11:18 | 49.57090 | 16.36208 | 37462 ft | 422 kts | 68° |
| 2026-04-30 11:19 | 49.58812 | 16.44890 | 37460 ft | 423 kts | 68° |
| 2026-04-30 11:19 | 49.60540 | 16.53634 | 37459 ft | 431 kts | 68° |
| 2026-04-30 11:20 | 49.62305 | 16.62606 | 37462 ft | 439 kts | 68° |
| 2026-04-30 11:20 | 49.64088 | 16.71726 | 37460 ft | 445 kts | 68° |
| 2026-04-30 11:21 | 49.65869 | 16.80888 | 37449 ft | 447 kts | 69° |
| 2026-04-30 11:21 | 49.67649 | 16.90093 | 37447 ft | 447 kts | 69° |
| 2026-04-30 11:22 | 49.68529 | 16.94670 | 37435 ft | 436 kts | 69° |
| 2026-04-30 11:22 | 49.69376 | 16.99094 | 37170 ft | 428 kts | 68° |
| 2026-04-30 11:22 | 49.70221 | 17.03495 | 36662 ft | 428 kts | 68° |
| 2026-04-30 11:22 | 49.71066 | 17.07900 | 36120 ft | 429 kts | 68° |
| 2026-04-30 11:23 | 49.71913 | 17.12322 | 35729 ft | 426 kts | 68° |
| 2026-04-30 11:23 | 49.72746 | 17.16688 | 35400 ft | 422 kts | 68° |
| 2026-04-30 11:23 | 49.74382 | 17.25305 | 34759 ft | 413 kts | 68° |
| 2026-04-30 11:24 | 49.75185 | 17.29546 | 34398 ft | 411 kts | 68° |
| 2026-04-30 11:24 | 49.75984 | 17.33770 | 33969 ft | 408 kts | 68° |
| 2026-04-30 11:24 | 49.76780 | 17.37995 | 33616 ft | 404 kts | 68° |
| 2026-04-30 11:25 | 49.78328 | 17.46235 | 32883 ft | 398 kts | 68° |
| 2026-04-30 11:25 | 49.79105 | 17.50381 | 32497 ft | 396 kts | 68° |
| 2026-04-30 11:25 | 49.80613 | 17.58458 | 31826 ft | 389 kts | 68° |
| 2026-04-30 11:26 | 49.82107 | 17.66494 | 31088 ft | 385 kts | 68° |
| 2026-04-30 11:26 | 49.82774 | 17.70090 | 30798 ft | 382 kts | 68° |
| 2026-04-30 11:26 | 49.83508 | 17.74059 | 30475 ft | 379 kts | 68° |
| 2026-04-30 11:27 | 49.84229 | 17.77971 | 30076 ft | 376 kts | 68° |
| 2026-04-30 11:27 | 49.84948 | 17.81875 | 29648 ft | 374 kts | 68° |
| 2026-04-30 11:27 | 49.85662 | 17.85754 | 29244 ft | 372 kts | 68° |
| 2026-04-30 11:27 | 49.86365 | 17.89590 | 28873 ft | 369 kts | 68° |
| 2026-04-30 11:28 | 49.87760 | 17.97218 | 28093 ft | 365 kts | 68° |
| 2026-04-30 11:28 | 49.88452 | 18.01014 | 27733 ft | 362 kts | 68° |
| 2026-04-30 11:28 | 49.89123 | 18.04707 | 27383 ft | 359 kts | 68° |
| 2026-04-30 11:29 | 49.89802 | 18.08446 | 27012 ft | 358 kts | 68° |
| 2026-04-30 11:29 | 49.90477 | 18.12170 | 26628 ft | 356 kts | 68° |
| 2026-04-30 11:29 | 49.91802 | 18.19505 | 25952 ft | 351 kts | 68° |
| 2026-04-30 11:30 | 49.93111 | 18.26789 | 25232 ft | 348 kts | 69° |
| 2026-04-30 11:30 | 49.93432 | 18.30531 | 24877 ft | 356 kts | 85° |
| 2026-04-30 11:30 | 49.93324 | 18.34366 | 24582 ft | 355 kts | 87° |
| 2026-04-30 11:31 | 49.93169 | 18.38201 | 24244 ft | 354 kts | 88° |
| 2026-04-30 11:31 | 49.93017 | 18.41997 | 23878 ft | 352 kts | 87° |
| 2026-04-30 11:31 | 49.92880 | 18.45762 | 23517 ft | 350 kts | 87° |
| 2026-04-30 11:31 | 49.92752 | 18.49543 | 23027 ft | 345 kts | 87° |
| 2026-04-30 11:32 | 49.92633 | 18.53240 | 22718 ft | 339 kts | 87° |
| 2026-04-30 11:32 | 49.92519 | 18.56873 | 22397 ft | 334 kts | 87° |
| 2026-04-30 11:32 | 49.92406 | 18.60439 | 22080 ft | 330 kts | 87° |
| 2026-04-30 11:33 | 49.92180 | 18.67482 | 21486 ft | 321 kts | 87° |
| 2026-04-30 11:33 | 49.92067 | 18.70938 | 21220 ft | 317 kts | 87° |
| 2026-04-30 11:33 | 49.91956 | 18.74300 | 20958 ft | 312 kts | 87° |
| 2026-04-30 11:33 | 49.91843 | 18.77672 | 20693 ft | 309 kts | 87° |
| 2026-04-30 11:34 | 49.91716 | 18.81014 | 20441 ft | 308 kts | 88° |
| 2026-04-30 11:34 | 49.91538 | 18.84310 | 20216 ft | 305 kts | 89° |
| 2026-04-30 11:34 | 49.91347 | 18.87551 | 19932 ft | 302 kts | 89° |
| 2026-04-30 11:34 | 49.91156 | 18.90817 | 19634 ft | 300 kts | 89° |
| 2026-04-30 11:35 | 49.90973 | 18.94036 | 19331 ft | 298 kts | 89° |
| 2026-04-30 11:35 | 49.90793 | 18.97215 | 19034 ft | 297 kts | 89° |
| 2026-04-30 11:35 | 49.90612 | 19.00421 | 18717 ft | 297 kts | 89° |
| 2026-04-30 11:35 | 49.90429 | 19.03632 | 18370 ft | 296 kts | 89° |
| 2026-04-30 11:36 | 49.90248 | 19.06799 | 18018 ft | 295 kts | 89° |
| 2026-04-30 11:36 | 49.90068 | 19.09930 | 17700 ft | 294 kts | 89° |
| 2026-04-30 11:36 | 49.89886 | 19.13098 | 17380 ft | 292 kts | 89° |
| 2026-04-30 11:36 | 49.89706 | 19.16229 | 17079 ft | 291 kts | 89° |
| 2026-04-30 11:37 | 49.89525 | 19.19345 | 16795 ft | 289 kts | 89° |
| 2026-04-30 11:37 | 49.89342 | 19.22464 | 16489 ft | 288 kts | 89° |
| 2026-04-30 11:37 | 49.89163 | 19.25506 | 16202 ft | 286 kts | 89° |
| 2026-04-30 11:37 | 49.89234 | 19.28565 | 15883 ft | 277 kts | 71° |
| 2026-04-30 11:38 | 49.89859 | 19.31355 | 15612 ft | 272 kts | 63° |
| 2026-04-30 11:38 | 49.90625 | 19.34028 | 15298 ft | 271 kts | 62° |
| 2026-04-30 11:38 | 49.91398 | 19.36654 | 15012 ft | 270 kts | 62° |
| 2026-04-30 11:38 | 49.92174 | 19.39339 | 14716 ft | 269 kts | 63° |
| 2026-04-30 11:39 | 49.92921 | 19.41972 | 14437 ft | 269 kts | 63° |
| 2026-04-30 11:39 | 49.93675 | 19.44661 | 14133 ft | 269 kts | 63° |
| 2026-04-30 11:39 | 49.94411 | 19.47296 | 13808 ft | 269 kts | 63° |
| 2026-04-30 11:39 | 49.95069 | 19.50047 | 13496 ft | 270 kts | 72° |
| 2026-04-30 11:40 | 49.95463 | 19.52904 | 13209 ft | 269 kts | 75° |
| 2026-04-30 11:40 | 49.95809 | 19.55725 | 12917 ft | 268 kts | 75° |
| 2026-04-30 11:40 | 49.96170 | 19.58559 | 12641 ft | 266 kts | 75° |
| 2026-04-30 11:40 | 49.96541 | 19.61394 | 12330 ft | 266 kts | 75° |
| 2026-04-30 11:41 | 49.96912 | 19.64197 | 12055 ft | 265 kts | 75° |
| 2026-04-30 11:41 | 49.97287 | 19.66988 | 11774 ft | 264 kts | 75° |
| 2026-04-30 11:41 | 49.97664 | 19.69773 | 11506 ft | 264 kts | 75° |
| 2026-04-30 11:41 | 49.98038 | 19.72551 | 11215 ft | 264 kts | 75° |
| 2026-04-30 11:42 | 49.98419 | 19.75365 | 10935 ft | 264 kts | 75° |
| 2026-04-30 11:42 | 49.98800 | 19.78170 | 10656 ft | 264 kts | 75° |
| 2026-04-30 11:42 | 49.99172 | 19.80920 | 10526 ft | 258 kts | 75° |
| 2026-04-30 11:42 | 49.99545 | 19.83671 | 10265 ft | 258 kts | 75° |
| 2026-04-30 11:43 | 49.99912 | 19.86367 | 9981 ft | 257 kts | 75° |
| 2026-04-30 11:43 | 50.00278 | 19.89085 | 9692 ft | 257 kts | 75° |
| 2026-04-30 11:43 | 50.00520 | 19.90879 | 9625 ft | 251 kts | 75° |
| 2026-04-30 11:43 | 50.00877 | 19.93531 | 9512 ft | 245 kts | 75° |
| 2026-04-30 11:44 | 50.01221 | 19.96082 | 9414 ft | 238 kts | 75° |
| 2026-04-30 11:44 | 50.01555 | 19.98575 | 9282 ft | 231 kts | 75° |
| 2026-04-30 11:44 | 50.01885 | 20.01003 | 9076 ft | 228 kts | 75° |
| 2026-04-30 11:44 | 50.02213 | 20.03407 | 8849 ft | 228 kts | 75° |
| 2026-04-30 11:45 | 50.02541 | 20.05823 | 8618 ft | 228 kts | 75° |
| 2026-04-30 11:45 | 50.02866 | 20.08228 | 8362 ft | 228 kts | 75° |
| 2026-04-30 11:45 | 50.03194 | 20.10663 | 8127 ft | 228 kts | 75° |
| 2026-04-30 11:45 | 50.03524 | 20.13094 | 7890 ft | 228 kts | 75° |
| 2026-04-30 11:46 | 50.03850 | 20.15513 | 7665 ft | 228 kts | 75° |
| 2026-04-30 11:46 | 50.04180 | 20.17942 | 7422 ft | 227 kts | 75° |
| 2026-04-30 11:46 | 50.04501 | 20.20321 | 7225 ft | 222 kts | 74° |
| 2026-04-30 11:46 | 50.04913 | 20.22571 | 6972 ft | 217 kts | 75° |
| 2026-04-30 11:47 | 50.05154 | 20.24896 | 6813 ft | 213 kts | 78° |
| 2026-04-30 11:47 | 50.05393 | 20.27170 | 6681 ft | 210 kts | 77° |
| 2026-04-30 11:47 | 50.05712 | 20.29353 | 6620 ft | 205 kts | 59° |
| 2026-04-30 11:47 | 50.06725 | 20.30796 | 6532 ft | 204 kts | 17° |
| 2026-04-30 11:48 | 50.08127 | 20.30746 | 6247 ft | 210 kts | 335° |
| 2026-04-30 11:48 | 50.09327 | 20.29440 | 6041 ft | 211 kts | 317° |
| 2026-04-30 11:48 | 50.10208 | 20.27625 | 5789 ft | 212 kts | 299° |
| 2026-04-30 11:48 | 50.10832 | 20.25579 | 5653 ft | 202 kts | 297° |
| 2026-04-30 11:49 | 50.11384 | 20.23659 | 5633 ft | 185 kts | 296° |
| 2026-04-30 11:49 | 50.11877 | 20.21908 | 5589 ft | 173 kts | 296° |
| 2026-04-30 11:49 | 50.12368 | 20.20161 | 5457 ft | 176 kts | 296° |
| 2026-04-30 11:49 | 50.12825 | 20.18377 | 5243 ft | 179 kts | 285° |
| 2026-04-30 11:50 | 50.12804 | 20.16476 | 5115 ft | 177 kts | 266° |
| 2026-04-30 11:50 | 50.12709 | 20.14562 | 4987 ft | 177 kts | 267° |
| 2026-04-30 11:50 | 50.12528 | 20.12643 | 4853 ft | 178 kts | 263° |
| 2026-04-30 11:50 | 50.12296 | 20.10771 | 4812 ft | 173 kts | 262° |
| 2026-04-30 11:51 | 50.12038 | 20.08892 | 4596 ft | 182 kts | 261° |
| 2026-04-30 11:51 | 50.11774 | 20.06991 | 4377 ft | 182 kts | 261° |
| 2026-04-30 11:51 | 50.11496 | 20.05057 | 4134 ft | 179 kts | 261° |
| 2026-04-30 11:51 | 50.11229 | 20.03163 | 3914 ft | 178 kts | 261° |
| 2026-04-30 11:52 | 50.10969 | 20.01298 | 3668 ft | 173 kts | 261° |
| 2026-04-30 11:52 | 50.10713 | 19.99495 | 3429 ft | 167 kts | 260° |
| 2026-04-30 11:52 | 50.10460 | 19.97746 | 3228 ft | 165 kts | 263° |
| 2026-04-30 11:52 | 50.10227 | 19.95963 | 2941 ft | 168 kts | 263° |
| 2026-04-30 11:53 | 50.09980 | 19.94201 | 2693 ft | 160 kts | 260° |
| 2026-04-30 11:53 | 50.09747 | 19.92520 | 2499 ft | 162 kts | 261° |
| 2026-04-30 11:53 | 50.09479 | 19.90810 | 2287 ft | 164 kts | 262° |
| 2026-04-30 11:53 | 50.09251 | 19.89066 | 2020 ft | 162 kts | 261° |
| 2026-04-30 11:54 | 50.09023 | 19.87383 | 1792 ft | 160 kts | 260° |
| 2026-04-30 11:54 | 50.08781 | 19.85719 | 1559 ft | 155 kts | 259° |
| 2026-04-30 11:54 | 50.08548 | 19.84065 | 1348 ft | 155 kts | 259° |
| 2026-04-30 11:54 | 50.08325 | 19.82449 | 1119 ft | 151 kts | 261° |
| 2026-04-30 11:55 | 50.08104 | 19.80867 | 923 ft | 148 kts | 259° |
| 2026-04-30 11:55 | 50.07889 | 19.79324 | 795 ft | 144 kts | 259° |
| 2026-04-30 11:55 | 50.07708 | 19.78007 | 792 ft | 102 kts | 257° |
| 2026-04-30 11:55 | 50.07607 | 19.77309 | 797 ft | 27 kts | 258° |
| 2026-04-30 11:56 | 50.07571 | 19.77036 | 800 ft | 25 kts | 259° |
| 2026-04-30 11:56 | 50.07519 | 19.76843 | 801 ft | 16 kts | 205° |
| 2026-04-30 11:56 | 50.07407 | 19.76871 | 799 ft | 18 kts | 168° |
| 2026-04-30 11:56 | 50.07309 | 19.76950 | 799 ft | 16 kts | 94° |
| 2026-04-30 11:57 | 50.07331 | 19.77128 | 799 ft | 17 kts | 79° |
| 2026-04-30 11:57 | 50.07357 | 19.77313 | 799 ft | 18 kts | 78° |
| 2026-04-30 11:57 | 50.07384 | 19.77505 | 799 ft | 18 kts | 78° |
| 2026-04-30 11:57 | 50.07410 | 19.77695 | 799 ft | 17 kts | 78° |
| 2026-04-30 11:58 | 50.07435 | 19.77875 | 799 ft | 17 kts | 78° |
| 2026-04-30 11:58 | 50.07460 | 19.78053 | 799 ft | 16 kts | 78° |
| 2026-04-30 11:58 | 50.07483 | 19.78220 | 799 ft | 16 kts | 78° |
| 2026-04-30 11:58 | 50.07506 | 19.78382 | 799 ft | 15 kts | 78° |
| 2026-04-30 11:59 | 50.07528 | 19.78539 | 799 ft | 14 kts | 77° |
| 2026-04-30 11:59 | 50.07549 | 19.78688 | 799 ft | 14 kts | 77° |
| 2026-04-30 11:59 | 50.07568 | 19.78829 | 799 ft | 13 kts | 78° |
| 2026-04-30 11:59 | 50.07587 | 19.78967 | 799 ft | 13 kts | 77° |
| 2026-04-30 12:00 | 50.07606 | 19.79099 | 799 ft | 12 kts | 78° |
| 2026-04-30 12:00 | 50.07624 | 19.79229 | 799 ft | 12 kts | 78° |
| 2026-04-30 12:00 | 50.07641 | 19.79357 | 799 ft | 12 kts | 78° |
| 2026-04-30 12:00 | 50.07659 | 19.79480 | 799 ft | 11 kts | 78° |
| 2026-04-30 12:01 | 50.07675 | 19.79599 | 799 ft | 11 kts | 78° |
| 2026-04-30 12:01 | 50.07691 | 19.79716 | 799 ft | 11 kts | 78° |
| 2026-04-30 12:01 | 50.07707 | 19.79828 | 799 ft | 11 kts | 78° |
| 2026-04-30 12:01 | 50.07718 | 19.79941 | 799 ft | 10 kts | 101° |
| 2026-04-30 12:02 | 50.07662 | 19.79968 | 799 ft | 10 kts | 206° |
| 2026-04-30 12:02 | 50.07597 | 19.79928 | 799 ft | 10 kts | 202° |
| 2026-04-30 12:02 | 50.07530 | 19.79926 | 799 ft | 10 kts | 161° |
| 2026-04-30 12:02 | 50.07517 | 19.80018 | 799 ft | 10 kts | 78° |
| 2026-04-30 12:03 | 50.07510 | 19.80064 | 799 ft | 2 kts | 142° |
| 2026-04-30 12:03 | 50.07474 | 19.80079 | 799 ft | 0 kts | 166° |